Time;durP1;ratioP1;P1;durP2;ratioP2;P2;SDS_P1;SDS_P2;PMS_P1;PMS_P2;Temp;Humidity;BMP_temperature;BMP_pressure;BME280_temperature;BME280_humidity;BME280_pressure;Samples;Min_cycle;Max_cycle;Signal;HPM_P1;HPM_P2
2021/01/27 02:04:51;;;;;;;11.00;2.25;;;;;;;;;;1415893;26;20510;-85
2021/01/27 02:07:19;;;;;;;15.40;2.75;;;;;;;;;;5045460;28;20041;-81
2021/01/27 02:09:46;;;;;;;20.90;3.00;;;;;;;;;;5050223;28;20033;-80
2021/01/27 02:12:19;;;;;;;13.88;1.98;;;;;;;;;;5049336;28;20029;-76
2021/01/27 02:14:57;;;;;;;15.23;2.70;;;;;;;;;;5052921;28;20053;-78
2021/01/27 02:17:34;;;;;;;16.85;2.50;;;;;;;;;;5050093;28;20033;-80
2021/01/27 02:20:04;;;;;;;16.20;2.92;;;;;;;;;;5051489;28;20037;-77
2021/01/27 02:22:40;;;;;;;15.20;2.10;;;;;;;;;;5031393;28;20564;-76
2021/01/27 02:25:07;;;;;;;21.23;3.20;;;;;;;;;;5066433;22;20049;-78
2021/01/27 02:27:49;;;;;;;12.32;2.17;;;;;;;;;;5051187;28;20033;-79
2021/01/27 02:30:22;;;;;;;16.83;3.22;;;;;;;;;;5052260;28;20029;-78
2021/01/27 02:33:04;;;;;;;16.25;2.50;;;;;;;;;;5050340;28;20384;-80
2021/01/27 02:35:37;;;;;;;14.98;2.65;;;;;;;;;;5046855;28;20068;-79
2021/01/27 02:38:23;;;;;;;18.20;3.22;;;;;;;;;;5048252;28;20419;-79
2021/01/27 02:41:08;;;;;;;16.45;2.90;;;;;;;;;;5042331;28;20036;-80
2021/01/27 02:43:35;;;;;;;15.23;2.75;;;;;;;;;;5032806;28;20052;-79
2021/01/27 02:46:15;;;;;;;16.83;2.90;;;;;;;;;;5021174;28;20025;-81
2021/01/27 02:48:46;;;;;;;15.85;2.60;;;;;;;;;;5041167;28;20038;-79
2021/01/27 02:51:21;;;;;;;20.35;3.75;;;;;;;;;;5037344;28;20029;-79
2021/01/27 02:53:51;;;;;;;22.10;2.92;;;;;;;;;;5046681;28;20033;-78
2021/01/27 02:56:47;;;;;;;17.30;3.42;;;;;;;;;;5042826;28;20036;-77
2021/01/27 02:59:21;;;;;;;17.95;3.08;;;;;;;;;;5017711;28;20069;-78
2021/01/27 03:01:53;;;;;;;15.25;3.08;;;;;;;;;;5040839;28;20048;-79
2021/01/27 03:04:22;;;;;;;20.15;2.88;;;;;;;;;;5044023;28;20037;-79
2021/01/27 03:06:51;;;;;;;18.70;3.60;;;;;;;;;;5022191;28;20103;-79
2021/01/27 03:09:27;;;;;;;15.48;2.55;;;;;;;;;;5049924;28;20033;-81
2021/01/27 03:11:54;;;;;;;20.95;3.50;;;;;;;;;;5048459;28;20028;-80
2021/01/27 03:14:22;;;;;;;16.45;2.70;;;;;;;;;;5050400;28;20483;-87
2021/01/27 03:16:54;;;;;;;19.20;3.00;;;;;;;;;;5029797;28;20036;-80
2021/01/27 03:19:24;;;;;;;17.92;3.22;;;;;;;;;;5051745;28;20471;-82
2021/01/27 03:21:56;;;;;;;21.83;3.20;;;;;;;;;;5040645;28;20041;-83
2021/01/27 03:58:32;;;;;;;20.08;3.33;;;;;;;;;;1419203;22;20081;-79
2021/01/27 04:01:07;;;;;;;19.52;2.90;;;;;;;;;;5040117;28;20391;-78
2021/01/27 04:03:34;;;;;;;15.27;2.72;;;;;;;;;;5049715;28;20037;-82
2021/01/27 04:06:02;;;;;;;28.98;4.43;;;;;;;;;;5050287;28;20063;-79
2021/01/27 04:08:29;;;;;;;14.52;2.30;;;;;;;;;;5049951;28;20133;-78
2021/01/27 04:10:56;;;;;;;13.80;2.60;;;;;;;;;;5030764;28;20044;-80
2021/01/27 04:13:24;;;;;;;14.13;2.17;;;;;;;;;;5051206;28;20114;-80
2021/01/27 04:15:51;;;;;;;23.75;3.55;;;;;;;;;;5047406;28;20429;-81
2021/01/27 04:18:18;;;;;;;16.88;2.60;;;;;;;;;;5051973;28;20084;-80
2021/01/27 04:20:45;;;;;;;15.68;2.83;;;;;;;;;;5053445;28;20091;-81
2021/01/27 04:23:12;;;;;;;18.63;3.28;;;;;;;;;;5054829;28;20510;-80
2021/01/27 04:25:39;;;;;;;14.85;2.85;;;;;;;;;;5053804;28;20044;-80
2021/01/27 04:28:06;;;;;;;14.77;2.72;;;;;;;;;;5053954;28;20029;-81
2021/01/27 04:30:34;;;;;;;17.40;3.17;;;;;;;;;;5052414;28;20033;-81
2021/01/27 04:33:01;;;;;;;17.02;3.25;;;;;;;;;;5086090;22;20561;-79
2021/01/27 04:35:28;;;;;;;24.65;4.05;;;;;;;;;;5072411;28;20059;-80
2021/01/27 04:37:55;;;;;;;19.35;3.83;;;;;;;;;;5051776;28;20410;-80
2021/01/27 04:40:26;;;;;;;16.70;4.03;;;;;;;;;;5058807;28;20398;-80
2021/01/27 04:42:53;;;;;;;16.17;2.75;;;;;;;;;;5073889;28;20115;-79
2021/01/27 04:45:21;;;;;;;16.60;2.88;;;;;;;;;;5070577;28;20029;-80
2021/01/27 04:48:06;;;;;;;18.38;3.25;;;;;;;;;;5054862;28;20041;-80
2021/01/27 04:50:37;;;;;;;12.38;2.22;;;;;;;;;;5069273;28;20036;-80
2021/01/27 04:53:04;;;;;;;17.70;2.72;;;;;;;;;;5074504;28;20204;-84
2021/01/27 04:55:39;;;;;;;14.60;3.33;;;;;;;;;;5049924;28;20052;-84
2021/01/27 04:58:12;;;;;;;18.38;2.70;;;;;;;;;;5075117;28;20036;-86
2021/01/27 05:00:50;;;;;;;13.23;3.03;;;;;;;;;;5073631;28;20037;-82
2021/01/27 05:03:24;;;;;;;17.98;3.15;;;;;;;;;;5077494;28;20032;-81
2021/01/27 05:06:00;;;;;;;19.15;3.33;;;;;;;;;;5073582;28;20024;-82
2021/01/27 05:08:30;;;;;;;15.45;3.25;;;;;;;;;;5071701;28;20032;-83
2021/01/27 05:10:59;;;;;;;19.02;3.83;;;;;;;;;;5063394;28;20020;-81
2021/01/27 05:13:38;;;;;;;22.10;3.33;;;;;;;;;;5052459;28;20064;-82
2021/01/27 05:16:24;;;;;;;16.15;2.90;;;;;;;;;;5054893;28;20033;-81
2021/01/27 05:18:52;;;;;;;18.40;3.45;;;;;;;;;;5069526;28;20102;-79
2021/01/27 05:21:31;;;;;;;18.90;3.40;;;;;;;;;;5071956;28;20115;-79
2021/01/27 05:23:58;;;;;;;17.13;3.92;;;;;;;;;;5056453;28;20033;-79
2021/01/27 05:26:51;;;;;;;17.70;2.83;;;;;;;;;;5072743;28;20020;-81
2021/01/27 05:29:24;;;;;;;14.43;2.88;;;;;;;;;;5070295;28;20368;-81
2021/01/27 05:34:36;;;;;;;11.55;2.70;;;;;;;;;;5066502;22;20113;-81
2021/01/27 05:37:14;;;;;;;14.55;2.83;;;;;;;;;;5076733;22;20072;-82
2021/01/27 05:39:41;;;;;;;16.02;3.00;;;;;;;;;;5073261;28;20047;-80
2021/01/27 05:42:20;;;;;;;15.55;2.85;;;;;;;;;;5071113;22;20056;-80
2021/01/27 05:44:48;;;;;;;15.38;3.75;;;;;;;;;;5051771;28;20036;-80
2021/01/27 05:47:21;;;;;;;11.07;1.63;;;;;;;;;;5029358;28;20048;-82
2021/01/27 05:49:48;;;;;;;14.40;2.75;;;;;;;;;;5051081;22;20076;-82
2021/01/27 05:52:20;;;;;;;16.05;2.65;;;;;;;;;;5049475;28;20037;-80
2021/01/27 05:54:47;;;;;;;14.60;2.17;;;;;;;;;;5051034;28;20286;-82
2021/01/27 05:57:21;;;;;;;16.20;2.90;;;;;;;;;;5048896;28;20080;-80
2021/01/27 05:59:49;;;;;;;17.85;3.53;;;;;;;;;;5034046;28;20033;-81
2021/01/27 06:02:16;;;;;;;15.98;2.85;;;;;;;;;;5031839;28;20488;-78
2021/01/27 06:04:52;;;;;;;19.77;2.25;;;;;;;;;;5033940;28;20034;-77
2021/01/27 06:07:26;;;;;;;16.05;3.15;;;;;;;;;;5067888;22;20052;-75
2021/01/27 06:09:54;;;;;;;19.25;2.60;;;;;;;;;;5063239;28;20132;-75
2021/01/27 06:12:21;;;;;;;19.20;3.00;;;;;;;;;;5071602;28;20040;-75
2021/01/27 06:14:49;;;;;;;18.15;3.10;;;;;;;;;;5073385;28;20044;-74
2021/01/27 06:17:24;;;;;;;11.82;2.47;;;;;;;;;;5069286;28;20486;-74
2021/01/27 06:20:06;;;;;;;14.85;2.15;;;;;;;;;;5055305;28;20060;-75
2021/01/27 06:22:56;;;;;;;10.85;2.10;;;;;;;;;;5070297;28;20059;-75
2021/01/27 06:25:34;;;;;;;9.05;2.05;;;;;;;;;;5068257;28;20394;-75
2021/01/27 06:28:11;;;;;;;13.65;3.35;;;;;;;;;;5051629;28;20085;-75
2021/01/27 06:30:41;;;;;;;16.83;4.13;;;;;;;;;;5071406;28;20054;-75
2021/01/27 06:33:27;;;;;;;16.42;2.75;;;;;;;;;;5071108;28;20044;-76
2021/01/27 06:35:54;;;;;;;16.98;3.40;;;;;;;;;;5045088;28;20037;-77
2021/01/27 06:38:34;;;;;;;12.02;2.05;;;;;;;;;;5059246;28;20098;-76
2021/01/27 06:41:03;;;;;;;18.98;3.40;;;;;;;;;;5056570;28;20024;-75
2021/01/27 06:43:30;;;;;;;21.13;5.03;;;;;;;;;;5067794;22;20053;-76
2021/01/27 06:46:01;;;;;;;20.25;3.70;;;;;;;;;;5014182;28;20037;-74
2021/01/27 06:48:40;;;;;;;14.32;2.97;;;;;;;;;;5038242;28;20037;-80
2021/01/27 06:51:15;;;;;;;15.57;3.38;;;;;;;;;;5023530;28;20033;-76
2021/01/27 06:54:01;;;;;;;19.33;3.10;;;;;;;;;;5027890;28;20033;-75
2021/01/27 06:57:03;;;;;;;13.13;2.85;;;;;;;;;;5012928;28;20030;-76
2021/01/27 06:59:46;;;;;;;43.17;8.05;;;;;;;;;;4962793;28;20031;-76
2021/01/27 07:02:20;;;;;;;23.55;3.90;;;;;;;;;;5008091;28;20562;-76
2021/01/27 07:05:05;;;;;;;15.50;2.40;;;;;;;;;;5023484;28;20041;-77
2021/01/27 07:07:38;;;;;;;17.48;3.10;;;;;;;;;;5024569;28;20045;-77
2021/01/27 07:10:23;;;;;;;11.98;3.00;;;;;;;;;;5031759;28;20095;-77
2021/01/27 07:13:02;;;;;;;9.20;2.20;;;;;;;;;;5031371;28;20036;-81
2021/01/27 07:15:47;;;;;;;15.20;4.68;;;;;;;;;;5032306;28;20072;-81
2021/01/27 07:18:32;;;;;;;11.75;2.83;;;;;;;;;;5031442;28;20034;-80
2021/01/27 07:21:04;;;;;;;13.45;2.60;;;;;;;;;;5029063;28;20041;-81
2021/01/27 07:23:40;;;;;;;13.68;1.92;;;;;;;;;;5029862;28;20113;-80
2021/01/27 07:26:26;;;;;;;17.77;3.50;;;;;;;;;;5032293;28;20029;-81
2021/01/27 07:29:14;;;;;;;18.42;2.78;;;;;;;;;;5028454;28;20033;-80
2021/01/27 07:31:48;;;;;;;17.10;2.50;;;;;;;;;;5032116;28;20045;-80
2021/01/27 07:34:23;;;;;;;11.30;2.63;;;;;;;;;;5031685;28;20038;-80
2021/01/27 07:36:54;;;;;;;12.20;2.10;;;;;;;;;;5012074;28;20037;-80
2021/01/27 07:39:44;;;;;;;11.00;2.15;;;;;;;;;;5031479;28;20124;-80
2021/01/27 07:42:24;;;;;;;13.40;2.33;;;;;;;;;;5024223;28;20090;-80
2021/01/27 07:45:03;;;;;;;15.23;2.40;;;;;;;;;;5092258;22;20060;-80
2021/01/27 07:47:36;;;;;;;15.23;2.50;;;;;;;;;;5019372;22;1981221;-80
2021/01/27 07:50:04;;;;;;;6.60;1.52;;;;;;;;;;5070904;28;20040;-79
2021/01/27 07:52:33;;;;;;;8.45;1.80;;;;;;;;;;5072279;22;20065;-81
2021/01/27 07:55:07;;;;;;;6.85;1.38;;;;;;;;;;5051704;28;20048;-80
2021/01/27 07:57:46;;;;;;;5.20;1.77;;;;;;;;;;5051883;28;20035;-81
2021/01/27 08:00:13;;;;;;;7.50;1.52;;;;;;;;;;5075804;22;20289;-80
2021/01/27 08:03:00;;;;;;;6.68;1.42;;;;;;;;;;5071947;28;20052;-82
2021/01/27 08:05:28;;;;;;;11.07;2.65;;;;;;;;;;5043780;28;20039;-81
2021/01/27 08:08:09;;;;;;;16.88;3.65;;;;;;;;;;5054016;28;20372;-82
2021/01/27 08:10:37;;;;;;;12.13;2.78;;;;;;;;;;5054661;28;20364;-80
2021/01/27 08:13:06;;;;;;;19.85;3.50;;;;;;;;;;5071149;28;20392;-79
2021/01/27 08:15:33;;;;;;;19.90;3.78;;;;;;;;;;5070363;28;20049;-79
2021/01/27 08:18:00;;;;;;;15.90;4.07;;;;;;;;;;5055654;22;20050;-80
2021/01/27 08:20:27;;;;;;;18.48;3.90;;;;;;;;;;5030510;28;20041;-79
2021/01/27 08:22:56;;;;;;;13.63;3.42;;;;;;;;;;5008716;28;20101;-79
2021/01/27 08:25:41;;;;;;;15.90;4.75;;;;;;;;;;5023615;28;20038;-79
2021/01/27 08:28:17;;;;;;;29.00;5.97;;;;;;;;;;5028357;28;20122;-79
2021/01/27 08:30:44;;;;;;;31.70;7.22;;;;;;;;;;5027181;28;20412;-79
2021/01/27 08:33:29;;;;;;;26.65;5.28;;;;;;;;;;5012080;28;20189;-79
2021/01/27 08:35:58;;;;;;;20.20;5.28;;;;;;;;;;5014162;28;20038;-79
2021/01/27 08:38:30;;;;;;;23.77;5.22;;;;;;;;;;5030438;28;20061;-80
2021/01/27 08:40:57;;;;;;;24.73;4.38;;;;;;;;;;5030892;28;20515;-79
2021/01/27 08:43:30;;;;;;;24.70;5.57;;;;;;;;;;5031311;28;20547;-80
2021/01/27 08:45:57;;;;;;;24.83;5.13;;;;;;;;;;5028926;28;20049;-79
2021/01/27 08:48:42;;;;;;;20.75;4.63;;;;;;;;;;5030691;28;20056;-79
2021/01/27 08:51:09;;;;;;;18.73;5.55;;;;;;;;;;5064810;22;20507;-79
2021/01/27 08:53:56;;;;;;;13.40;4.50;;;;;;;;;;5051004;28;20037;-80
2021/01/27 08:56:23;;;;;;;18.05;5.35;;;;;;;;;;5033116;28;20029;-83
2021/01/27 08:59:10;;;;;;;15.00;5.20;;;;;;;;;;5030480;28;20066;-82
2021/01/27 09:01:40;;;;;;;15.45;4.18;;;;;;;;;;5046830;28;20116;-80
2021/01/27 09:04:07;;;;;;;12.48;3.90;;;;;;;;;;5050498;28;20065;-81
2021/01/27 09:06:44;;;;;;;13.45;4.20;;;;;;;;;;5035609;28;20052;-80
2021/01/27 09:09:23;;;;;;;12.45;4.47;;;;;;;;;;5052195;28;20036;-80
2021/01/27 09:11:56;;;;;;;12.02;4.85;;;;;;;;;;5054391;28;20562;-80
2021/01/27 09:14:24;;;;;;;14.98;5.10;;;;;;;;;;5036019;28;20057;-80
2021/01/27 09:16:52;;;;;;;16.02;5.20;;;;;;;;;;5054521;28;20491;-80
2021/01/27 09:19:23;;;;;;;15.85;5.40;;;;;;;;;;5054039;28;20068;-80
2021/01/27 09:22:16;;;;;;;20.77;6.32;;;;;;;;;;5037451;28;20033;-81
2021/01/27 09:24:45;;;;;;;16.17;5.22;;;;;;;;;;5050381;28;20074;-81
2021/01/27 09:27:21;;;;;;;15.57;6.40;;;;;;;;;;5053313;28;20204;-80
2021/01/27 09:30:04;;;;;;;13.65;4.47;;;;;;;;;;5054003;28;20075;-81
2021/01/27 09:32:32;;;;;;;18.25;5.35;;;;;;;;;;5037273;28;20506;-81
2021/01/27 09:35:09;;;;;;;14.65;4.32;;;;;;;;;;5054577;28;20128;-82
2021/01/27 09:37:38;;;;;;;12.90;5.60;;;;;;;;;;5046057;28;20040;-80
2021/01/27 09:40:08;;;;;;;13.40;6.05;;;;;;;;;;5051851;28;20037;-82
2021/01/27 09:42:35;;;;;;;18.02;5.10;;;;;;;;;;5053968;28;20033;-82
2021/01/27 09:45:07;;;;;;;13.27;5.85;;;;;;;;;;5036115;28;20171;-81
2021/01/27 09:47:37;;;;;;;16.50;5.75;;;;;;;;;;5053612;28;20033;-81
2021/01/27 09:52:31;;;;;;;17.05;5.70;;;;;;;;;;5082849;22;20060;-81
2021/01/27 09:55:16;;;;;;;13.90;5.75;;;;;;;;;;5073715;22;20056;-81
2021/01/27 09:57:44;;;;;;;17.35;5.80;;;;;;;;;;5073621;28;20098;-82
2021/01/27 10:00:24;;;;;;;16.55;5.82;;;;;;;;;;5089003;22;20496;-82
2021/01/27 10:02:52;;;;;;;18.63;5.07;;;;;;;;;;5055794;28;20478;-82
2021/01/27 10:05:38;;;;;;;19.80;5.75;;;;;;;;;;5055228;28;20078;-82
2021/01/27 10:08:14;;;;;;;20.25;6.57;;;;;;;;;;5081679;22;20048;-82
2021/01/27 10:10:42;;;;;;;12.55;5.90;;;;;;;;;;5072908;28;20111;-82
2021/01/27 10:13:10;;;;;;;18.42;5.47;;;;;;;;;;5073185;28;20036;-82
2021/01/27 10:15:37;;;;;;;23.40;6.72;;;;;;;;;;5073291;28;20056;-82
2021/01/27 10:18:09;;;;;;;29.88;7.13;;;;;;;;;;5071922;28;20048;-81
2021/01/27 10:20:38;;;;;;;18.73;5.78;;;;;;;;;;5055658;28;20033;-81
2021/01/27 10:23:07;;;;;;;16.73;5.07;;;;;;;;;;5054021;28;20035;-82
2021/01/27 10:25:44;;;;;;;18.58;5.72;;;;;;;;;;5073978;22;20136;-81
2021/01/27 10:28:11;;;;;;;14.52;5.15;;;;;;;;;;5070233;28;20032;-81
2021/01/27 10:30:44;;;;;;;14.20;5.25;;;;;;;;;;5071305;28;20028;-81
2021/01/27 10:33:31;;;;;;;27.02;6.10;;;;;;;;;;5067394;28;20036;-81
2021/01/27 10:35:59;;;;;;;18.90;5.35;;;;;;;;;;5050210;28;20348;-81
2021/01/27 10:38:27;;;;;;;23.40;6.22;;;;;;;;;;5067049;28;20048;-79
2021/01/27 10:41:07;;;;;;;21.83;5.47;;;;;;;;;;5067501;28;20029;-80
2021/01/27 10:43:34;;;;;;;15.48;3.88;;;;;;;;;;5064969;28;20037;-80
2021/01/27 10:46:01;;;;;;;15.00;4.28;;;;;;;;;;5070504;28;20028;-79
2021/01/27 10:48:30;;;;;;;16.98;5.32;;;;;;;;;;5071847;28;20032;-80
2021/01/27 10:50:57;;;;;;;14.65;3.63;;;;;;;;;;5072356;28;20028;-80
2021/01/27 10:53:24;;;;;;;18.52;4.15;;;;;;;;;;5070678;28;20028;-78
2021/01/27 10:55:55;;;;;;;16.33;3.97;;;;;;;;;;5070723;28;20044;-80
2021/01/27 12:37:52;;;;;;;14.30;2.95;;;;;;;;;;1416075;26;20411;-80
2021/01/27 12:40:21;;;;;;;15.48;3.97;;;;;;;;;;5054261;28;20033;-80
2021/01/27 12:42:49;;;;;;;12.77;3.17;;;;;;;;;;5057736;28;20495;-81
2021/01/27 12:45:17;;;;;;;16.70;2.90;;;;;;;;;;5051049;28;20083;-81
2021/01/27 12:47:44;;;;;;;18.83;3.83;;;;;;;;;;5046680;28;20033;-82
2021/01/27 12:50:13;;;;;;;11.38;2.70;;;;;;;;;;5060705;28;20029;-82
2021/01/27 12:52:41;;;;;;;18.35;3.63;;;;;;;;;;5036306;28;20042;-82
2021/01/27 12:55:13;;;;;;;14.02;2.65;;;;;;;;;;5034326;28;20045;-83
2021/01/27 12:57:41;;;;;;;18.45;3.97;;;;;;;;;;5046457;28;20041;-82
2021/01/27 13:00:10;;;;;;;13.98;3.40;;;;;;;;;;5060298;28;20552;-82
2021/01/27 13:02:37;;;;;;;10.45;3.08;;;;;;;;;;5053874;28;20029;-82
2021/01/27 13:05:04;;;;;;;14.02;3.55;;;;;;;;;;5043500;22;20491;-83
2021/01/27 13:07:31;;;;;;;8.80;3.03;;;;;;;;;;5054738;28;20029;-82
2021/01/27 13:09:58;;;;;;;16.63;3.67;;;;;;;;;;5035568;28;20103;-83
2021/01/27 13:12:25;;;;;;;15.10;3.92;;;;;;;;;;5051165;28;20495;-83
2021/01/27 13:14:53;;;;;;;18.38;3.08;;;;;;;;;;5054308;28;20049;-83
2021/01/27 13:17:20;;;;;;;17.40;4.32;;;;;;;;;;5041547;28;20030;-83
2021/01/27 13:19:47;;;;;;;15.02;3.13;;;;;;;;;;5052390;28;20083;-83
2021/01/27 13:22:16;;;;;;;14.10;3.17;;;;;;;;;;5046185;28;20025;-82
2021/01/27 13:24:43;;;;;;;16.92;3.97;;;;;;;;;;5050850;28;20048;-83
2021/01/27 13:27:11;;;;;;;16.73;3.17;;;;;;;;;;5051969;28;20029;-82
2021/01/27 13:29:38;;;;;;;20.98;3.88;;;;;;;;;;5044120;28;20064;-83
2021/01/27 13:32:05;;;;;;;16.15;3.13;;;;;;;;;;5054170;28;20033;-81
2021/01/27 13:34:32;;;;;;;15.80;3.78;;;;;;;;;;5020532;28;20052;-83
2021/01/27 13:36:59;;;;;;;11.93;3.55;;;;;;;;;;5051688;28;20134;-83
2021/01/27 13:39:26;;;;;;;18.35;4.65;;;;;;;;;;5029069;28;20029;-83
2021/01/27 13:41:53;;;;;;;17.80;4.50;;;;;;;;;;5054288;28;20041;-83
2021/01/27 13:44:21;;;;;;;13.60;3.60;;;;;;;;;;5053814;28;20112;-83
2021/01/27 13:46:48;;;;;;;22.92;5.22;;;;;;;;;;5037284;28;20041;-82
2021/01/27 13:49:15;;;;;;;14.13;3.80;;;;;;;;;;5049102;28;20025;-83
2021/01/27 13:51:42;;;;;;;12.55;4.13;;;;;;;;;;5034951;28;20091;-83
2021/01/27 13:54:09;;;;;;;23.60;5.43;;;;;;;;;;5048152;28;20033;-83
2021/01/27 13:56:36;;;;;;;19.73;3.35;;;;;;;;;;5035909;28;20482;-83
2021/01/27 13:59:03;;;;;;;16.45;4.95;;;;;;;;;;5043739;28;20115;-82
2021/01/27 14:01:32;;;;;;;20.27;4.40;;;;;;;;;;5032875;28;20116;-82
2021/01/27 14:03:59;;;;;;;19.15;3.88;;;;;;;;;;5050572;28;20034;-83
2021/01/27 14:06:26;;;;;;;21.15;4.68;;;;;;;;;;5074135;22;20077;-82
2021/01/27 14:08:53;;;;;;;22.20;4.57;;;;;;;;;;5083792;22;20380;-82
2021/01/27 14:11:21;;;;;;;18.38;4.88;;;;;;;;;;5040642;28;20037;-81
2021/01/27 14:13:48;;;;;;;16.00;4.30;;;;;;;;;;5051689;22;20499;-83
2021/01/27 14:16:15;;;;;;;25.85;5.20;;;;;;;;;;5053540;28;20083;-83
2021/01/27 14:18:42;;;;;;;23.67;3.85;;;;;;;;;;5027591;28;20060;-83
2021/01/27 14:21:09;;;;;;;23.27;4.95;;;;;;;;;;5015213;28;20037;-83
2021/01/27 14:23:36;;;;;;;20.60;4.55;;;;;;;;;;5049211;23;20045;-83
2021/01/27 14:26:03;;;;;;;18.65;4.72;;;;;;;;;;5041927;28;20033;-83
2021/01/27 14:28:31;;;;;;;24.05;4.90;;;;;;;;;;5064543;28;20507;-82
2021/01/27 14:30:58;;;;;;;18.45;5.57;;;;;;;;;;5032880;28;20045;-82
2021/01/27 14:33:25;;;;;;;24.02;4.68;;;;;;;;;;5047378;28;20036;-83
2021/01/27 14:35:53;;;;;;;22.75;4.97;;;;;;;;;;5052248;28;20039;-83
2021/01/27 14:38:21;;;;;;;27.55;6.05;;;;;;;;;;5061713;22;20008;-82
2021/01/27 14:40:48;;;;;;;18.17;4.80;;;;;;;;;;5071884;28;20098;-82
2021/01/27 14:43:15;;;;;;;13.82;3.65;;;;;;;;;;5070768;28;20082;-82
2021/01/27 14:45:42;;;;;;;15.43;4.07;;;;;;;;;;5054588;28;20124;-81
2021/01/27 14:48:11;;;;;;;21.38;4.75;;;;;;;;;;5067165;28;20103;-81
2021/01/27 14:50:39;;;;;;;16.25;5.05;;;;;;;;;;5047058;28;20033;-81
2021/01/27 14:53:06;;;;;;;19.17;4.88;;;;;;;;;;5050038;28;20041;-81
2021/01/27 14:55:34;;;;;;;21.88;4.50;;;;;;;;;;5035359;28;20103;-80
2021/01/27 14:58:01;;;;;;;17.70;4.85;;;;;;;;;;5040489;28;20037;-80
2021/01/27 15:00:29;;;;;;;13.65;3.97;;;;;;;;;;5048466;28;20056;-80
2021/01/27 15:02:56;;;;;;;18.20;3.50;;;;;;;;;;5051455;28;20036;-80
2021/01/27 15:05:24;;;;;;;17.25;4.80;;;;;;;;;;5052685;28;20029;-80
2021/01/27 15:07:52;;;;;;;21.63;4.97;;;;;;;;;;5049921;28;20082;-80
2021/01/27 15:10:20;;;;;;;20.52;4.68;;;;;;;;;;5058315;28;20060;-80
2021/01/27 15:12:47;;;;;;;21.73;4.93;;;;;;;;;;5061149;22;20045;-80
2021/01/27 15:15:14;;;;;;;21.88;5.65;;;;;;;;;;5051894;28;20059;-80
2021/01/27 15:17:42;;;;;;;22.52;5.68;;;;;;;;;;5032769;28;20029;-80
2021/01/27 15:20:09;;;;;;;25.92;5.97;;;;;;;;;;5034203;28;20033;-81
2021/01/27 15:22:36;;;;;;;21.25;5.35;;;;;;;;;;5027337;28;20036;-81
2021/01/27 15:25:04;;;;;;;22.98;5.85;;;;;;;;;;5024160;28;20038;-81
2021/01/27 15:27:31;;;;;;;20.35;4.93;;;;;;;;;;5029171;28;20041;-81
2021/01/27 15:29:58;;;;;;;22.15;5.25;;;;;;;;;;5034558;28;20462;-80
2021/01/27 15:32:25;;;;;;;21.15;5.28;;;;;;;;;;5030180;28;20025;-80
2021/01/27 15:34:52;;;;;;;22.58;4.53;;;;;;;;;;5029895;28;20033;-80
2021/01/27 15:37:19;;;;;;;23.55;5.70;;;;;;;;;;5034750;28;20387;-80
2021/01/27 15:39:46;;;;;;;27.63;5.20;;;;;;;;;;5010927;28;20033;-80
2021/01/27 15:42:13;;;;;;;29.42;6.32;;;;;;;;;;5031140;28;20096;-79
2021/01/27 15:44:41;;;;;;;28.80;5.75;;;;;;;;;;5038285;28;20438;-80
2021/01/27 15:47:08;;;;;;;27.08;4.55;;;;;;;;;;5020601;28;20461;-81
2021/01/27 15:49:35;;;;;;;27.15;5.25;;;;;;;;;;5026248;28;20033;-80
2021/01/27 15:52:02;;;;;;;32.63;6.28;;;;;;;;;;5034840;28;20155;-80
2021/01/27 15:54:29;;;;;;;32.28;6.90;;;;;;;;;;5042947;28;20136;-80
2021/01/27 15:56:56;;;;;;;25.48;4.63;;;;;;;;;;5024896;28;20026;-80
2021/01/27 15:59:23;;;;;;;26.80;6.22;;;;;;;;;;5021411;28;20129;-80
2021/01/27 16:01:50;;;;;;;36.28;5.68;;;;;;;;;;5011508;28;20030;-80
2021/01/27 16:04:17;;;;;;;22.02;4.43;;;;;;;;;;5032310;28;20040;-81
2021/01/27 16:06:45;;;;;;;35.15;6.60;;;;;;;;;;5036507;28;20048;-80
2021/01/27 16:09:13;;;;;;;29.08;4.30;;;;;;;;;;5014678;28;20029;-84
2021/01/27 16:11:41;;;;;;;27.30;5.03;;;;;;;;;;5021127;28;20052;-79
2021/01/27 16:14:08;;;;;;;29.77;4.63;;;;;;;;;;5083749;22;20503;-79
2021/01/27 16:16:36;;;;;;;27.27;4.72;;;;;;;;;;5071575;22;20049;-80
2021/01/27 16:19:04;;;;;;;26.02;5.18;;;;;;;;;;5054878;28;20036;-79
2021/01/27 16:21:31;;;;;;;21.13;4.90;;;;;;;;;;5056076;22;20408;-80
2021/01/27 16:23:58;;;;;;;31.23;4.45;;;;;;;;;;5053058;28;20033;-79
2021/01/27 16:26:26;;;;;;;27.15;5.78;;;;;;;;;;5034783;28;20068;-79
2021/01/27 16:28:53;;;;;;;27.95;4.82;;;;;;;;;;5048282;22;20492;-79
2021/01/27 16:31:20;;;;;;;29.15;5.25;;;;;;;;;;5066709;28;20044;-79
2021/01/27 16:33:48;;;;;;;23.52;4.28;;;;;;;;;;5068676;28;20056;-80
2021/01/27 16:36:15;;;;;;;26.10;5.22;;;;;;;;;;5067617;28;20037;-81
2021/01/27 16:38:42;;;;;;;23.30;4.22;;;;;;;;;;5043622;28;20247;-80
2021/01/27 16:41:09;;;;;;;29.45;5.32;;;;;;;;;;5023886;28;20045;-80
2021/01/27 16:43:36;;;;;;;34.97;5.15;;;;;;;;;;5038111;28;20030;-80
2021/01/27 16:46:03;;;;;;;24.02;5.80;;;;;;;;;;5061310;22;20053;-80
2021/01/27 16:48:30;;;;;;;26.92;4.82;;;;;;;;;;5057630;28;20033;-81
2021/01/27 16:50:57;;;;;;;23.08;4.05;;;;;;;;;;5037047;28;20036;-81
2021/01/27 16:53:25;;;;;;;25.27;4.43;;;;;;;;;;5036100;28;20506;-81
2021/01/27 16:55:52;;;;;;;20.52;3.42;;;;;;;;;;5045494;28;20503;-80
2021/01/27 16:58:19;;;;;;;25.60;5.43;;;;;;;;;;5029398;28;20566;-80
2021/01/27 17:00:47;;;;;;;25.20;5.07;;;;;;;;;;5055230;28;20442;-81
2021/01/27 17:03:14;;;;;;;26.65;4.90;;;;;;;;;;5057274;28;20029;-81
2021/01/27 17:05:41;;;;;;;21.38;4.05;;;;;;;;;;5049707;28;20084;-81
2021/01/27 17:08:10;;;;;;;20.88;3.88;;;;;;;;;;5036726;28;20391;-81
2021/01/27 17:10:37;;;;;;;19.70;3.70;;;;;;;;;;5027622;28;20041;-82
2021/01/27 17:13:05;;;;;;;23.33;3.17;;;;;;;;;;5055346;28;20025;-82
2021/01/27 17:15:32;;;;;;;28.77;4.57;;;;;;;;;;5046660;28;20161;-83
2021/01/27 17:18:00;;;;;;;20.60;4.38;;;;;;;;;;5024411;28;20459;-82
2021/01/27 17:20:27;;;;;;;18.48;4.10;;;;;;;;;;5058339;22;20087;-83
2021/01/27 17:22:54;;;;;;;22.92;3.70;;;;;;;;;;5057906;28;20123;-83
2021/01/27 17:25:22;;;;;;;25.65;4.00;;;;;;;;;;5043978;28;20479;-83
2021/01/27 17:27:49;;;;;;;21.55;4.28;;;;;;;;;;5053673;28;20924;-83
2021/01/27 17:30:18;;;;;;;21.63;4.18;;;;;;;;;;5051665;28;20032;-83
2021/01/27 17:32:45;;;;;;;24.65;4.18;;;;;;;;;;5045303;28;20487;-84
2021/01/27 17:35:12;;;;;;;23.33;3.95;;;;;;;;;;5063748;28;20049;-84
2021/01/27 17:37:39;;;;;;;21.30;3.58;;;;;;;;;;5059563;28;20357;-83
2021/01/27 17:40:06;;;;;;;22.48;3.92;;;;;;;;;;5068155;28;20098;-83
2021/01/27 17:42:34;;;;;;;20.35;3.88;;;;;;;;;;5067245;28;20029;-83
2021/01/27 17:45:01;;;;;;;23.35;5.10;;;;;;;;;;5047051;28;20033;-82
2021/01/27 17:47:28;;;;;;;15.38;2.35;;;;;;;;;;5061956;28;20471;-83
2021/01/27 17:49:55;;;;;;;16.73;3.70;;;;;;;;;;5054263;28;20488;-83
2021/01/27 17:52:22;;;;;;;20.25;4.20;;;;;;;;;;5069297;28;20426;-82
2021/01/27 17:54:49;;;;;;;20.83;4.07;;;;;;;;;;5069751;28;20118;-82
2021/01/27 17:57:17;;;;;;;19.60;3.15;;;;;;;;;;5054546;28;20057;-82
2021/01/27 17:59:44;;;;;;;20.35;3.35;;;;;;;;;;5053298;28;20108;-81
2021/01/27 18:02:11;;;;;;;19.15;4.13;;;;;;;;;;5050719;28;20162;-82
2021/01/27 18:04:38;;;;;;;22.35;3.95;;;;;;;;;;5067428;28;20579;-81
2021/01/27 18:07:05;;;;;;;16.65;2.50;;;;;;;;;;5069679;28;20487;-82
2021/01/27 18:09:32;;;;;;;17.45;3.72;;;;;;;;;;5054362;28;20021;-81
2021/01/27 18:11:59;;;;;;;22.45;3.85;;;;;;;;;;5060382;28;20029;-81
2021/01/27 18:14:26;;;;;;;15.60;2.63;;;;;;;;;;5056060;28;20052;-82
2021/01/27 18:16:53;;;;;;;11.68;3.25;;;;;;;;;;5049709;28;20582;-81
2021/01/27 18:21:47;;;;;;;12.18;2.75;;;;;;;;;;5089601;22;20060;-81
2021/01/27 18:24:14;;;;;;;19.98;3.42;;;;;;;;;;5077376;22;20499;-81
2021/01/27 18:26:42;;;;;;;20.27;4.43;;;;;;;;;;5051681;28;20033;-81
2021/01/27 18:29:09;;;;;;;16.20;3.00;;;;;;;;;;5071194;22;20143;-82
2021/01/27 18:31:36;;;;;;;14.45;3.35;;;;;;;;;;5051180;28;20033;-81
2021/01/27 18:34:03;;;;;;;26.23;4.75;;;;;;;;;;5052873;28;20037;-82
2021/01/27 18:36:30;;;;;;;17.75;2.47;;;;;;;;;;5054392;22;20045;-82
2021/01/27 18:38:57;;;;;;;18.65;3.40;;;;;;;;;;5073171;28;20028;-82
2021/01/27 18:41:24;;;;;;;16.67;3.95;;;;;;;;;;5073588;28;20508;-82
2021/01/27 18:43:51;;;;;;;16.25;3.10;;;;;;;;;;5073241;28;20538;-82
2021/01/27 18:46:18;;;;;;;19.80;2.92;;;;;;;;;;5068157;28;20032;-82
2021/01/27 18:48:45;;;;;;;16.88;2.85;;;;;;;;;;5081438;28;20040;-82
2021/01/27 18:51:14;;;;;;;21.50;3.63;;;;;;;;;;5070791;28;20029;-82
2021/01/27 18:53:41;;;;;;;15.13;2.60;;;;;;;;;;5082092;22;20407;-82
2021/01/27 18:56:08;;;;;;;20.13;3.17;;;;;;;;;;5036197;28;20041;-82
2021/01/27 18:58:35;;;;;;;22.48;3.40;;;;;;;;;;5036174;28;20087;-81
2021/01/27 19:01:02;;;;;;;22.85;3.40;;;;;;;;;;5034455;28;20029;-82
2021/01/27 19:03:29;;;;;;;27.00;3.60;;;;;;;;;;5023843;28;20459;-81
2021/01/27 19:05:56;;;;;;;20.88;3.47;;;;;;;;;;5016460;28;20103;-81
2021/01/27 19:08:26;;;;;;;17.88;2.60;;;;;;;;;;5029409;28;20099;-82
2021/01/27 19:10:54;;;;;;;25.08;5.00;;;;;;;;;;5037997;28;20037;-81
2021/01/27 19:13:22;;;;;;;22.77;3.85;;;;;;;;;;5032662;28;20029;-82
2021/01/27 19:15:49;;;;;;;17.30;2.88;;;;;;;;;;5031083;28;20037;-81